sensor_id;sensor_type;location;lat;lon;timestamp;temperature;humidity
19888;DHT22;10106;51.332;12.336;2023-04-24T00:02:11;13.10;99.90
19888;DHT22;10106;51.332;12.336;2023-04-24T00:04:38;13.10;99.90
19888;DHT22;10106;51.332;12.336;2023-04-24T00:07:06;13.00;99.90
19888;DHT22;10106;51.332;12.336;2023-04-24T00:09:35;13.00;99.90
19888;DHT22;10106;51.332;12.336;2023-04-24T00:12:00;13.00;99.90
19888;DHT22;10106;51.332;12.336;2023-04-24T00:14:29;12.90;99.90
19888;DHT22;10106;51.332;12.336;2023-04-24T00:16:54;12.90;99.90
19888;DHT22;10106;51.332;12.336;2023-04-24T00:19:25;12.90;99.90
19888;DHT22;10106;51.332;12.336;2023-04-24T00:21:51;12.90;99.90
19888;DHT22;10106;51.332;12.336;2023-04-24T00:24:17;12.90;99.90
19888;DHT22;10106;51.332;12.336;2023-04-24T00:26:43;12.80;99.90
19888;DHT22;10106;51.332;12.336;2023-04-24T00:29:09;12.80;99.90
19888;DHT22;10106;51.332;12.336;2023-04-24T00:31:34;12.70;99.90
19888;DHT22;10106;51.332;12.336;2023-04-24T00:34:03;12.70;99.90
19888;DHT22;10106;51.332;12.336;2023-04-24T00:36:29;12.70;99.90
19888;DHT22;10106;51.332;12.336;2023-04-24T00:38:56;12.60;99.90
19888;DHT22;10106;51.332;12.336;2023-04-24T00:41:21;12.50;99.90
19888;DHT22;10106;51.332;12.336;2023-04-24T00:43:47;12.50;99.90
19888;DHT22;10106;51.332;12.336;2023-04-24T00:46:13;12.40;99.90
19888;DHT22;10106;51.332;12.336;2023-04-24T00:48:39;12.40;99.90
19888;DHT22;10106;51.332;12.336;2023-04-24T00:51:05;12.40;99.90
19888;DHT22;10106;51.332;12.336;2023-04-24T00:53:31;12.30;99.90
19888;DHT22;10106;51.332;12.336;2023-04-24T00:55:57;12.30;99.90
19888;DHT22;10106;51.332;12.336;2023-04-24T00:58:23;12.20;99.90
19888;DHT22;10106;51.332;12.336;2023-04-24T01:00:50;12.20;99.90
19888;DHT22;10106;51.332;12.336;2023-04-24T01:03:19;12.20;99.90
19888;DHT22;10106;51.332;12.336;2023-04-24T01:05:45;12.10;99.90
19888;DHT22;10106;51.332;12.336;2023-04-24T01:08:11;12.10;99.90
19888;DHT22;10106;51.332;12.336;2023-04-24T01:10:37;12.00;99.90
19888;DHT22;10106;51.332;12.336;2023-04-24T01:13:04;12.00;99.90
19888;DHT22;10106;51.332;12.336;2023-04-24T01:15:30;12.00;99.90
19888;DHT22;10106;51.332;12.336;2023-04-24T01:17:56;12.00;99.90
19888;DHT22;10106;51.332;12.336;2023-04-24T01:20:22;11.90;99.90
19888;DHT22;10106;51.332;12.336;2023-04-24T01:22:49;11.90;99.90
19888;DHT22;10106;51.332;12.336;2023-04-24T01:25:15;11.90;99.90
19888;DHT22;10106;51.332;12.336;2023-04-24T01:27:41;11.90;99.90
19888;DHT22;10106;51.332;12.336;2023-04-24T01:30:07;11.90;99.90
19888;DHT22;10106;51.332;12.336;2023-04-24T01:32:32;11.90;99.90
19888;DHT22;10106;51.332;12.336;2023-04-24T01:34:58;11.90;99.90
19888;DHT22;10106;51.332;12.336;2023-04-24T01:37:23;11.90;99.90
19888;DHT22;10106;51.332;12.336;2023-04-24T01:39:49;11.90;99.90
19888;DHT22;10106;51.332;12.336;2023-04-24T01:42:15;11.80;99.90
19888;DHT22;10106;51.332;12.336;2023-04-24T01:44:41;11.80;99.90
19888;DHT22;10106;51.332;12.336;2023-04-24T01:47:07;11.70;99.90
19888;DHT22;10106;51.332;12.336;2023-04-24T01:49:32;11.70;99.90
19888;DHT22;10106;51.332;12.336;2023-04-24T01:51:58;11.70;99.90
19888;DHT22;10106;51.332;12.336;2023-04-24T01:54:24;11.70;99.90
19888;DHT22;10106;51.332;12.336;2023-04-24T01:56:50;11.60;99.90
19888;DHT22;10106;51.332;12.336;2023-04-24T01:59:15;11.60;99.90
19888;DHT22;10106;51.332;12.336;2023-04-24T02:01:42;11.60;99.90
19888;DHT22;10106;51.332;12.336;2023-04-24T02:04:07;11.50;99.90
19888;DHT22;10106;51.332;12.336;2023-04-24T02:06:33;11.50;99.90
19888;DHT22;10106;51.332;12.336;2023-04-24T02:08:59;11.40;99.90
19888;DHT22;10106;51.332;12.336;2023-04-24T02:11:25;11.40;99.90
19888;DHT22;10106;51.332;12.336;2023-04-24T02:13:51;11.40;99.90
19888;DHT22;10106;51.332;12.336;2023-04-24T02:16:17;11.30;99.90
19888;DHT22;10106;51.332;12.336;2023-04-24T02:18:42;11.30;99.90
19888;DHT22;10106;51.332;12.336;2023-04-24T02:21:08;11.30;99.90
19888;DHT22;10106;51.332;12.336;2023-04-24T02:23:33;11.30;99.90
19888;DHT22;10106;51.332;12.336;2023-04-24T02:25:59;11.40;99.90
19888;DHT22;10106;51.332;12.336;2023-04-24T02:28:24;11.30;99.90
19888;DHT22;10106;51.332;12.336;2023-04-24T02:30:50;11.30;99.90
19888;DHT22;10106;51.332;12.336;2023-04-24T02:33:16;11.30;99.90
19888;DHT22;10106;51.332;12.336;2023-04-24T02:35:42;11.30;99.90
19888;DHT22;10106;51.332;12.336;2023-04-24T02:38:07;11.30;99.90
19888;DHT22;10106;51.332;12.336;2023-04-24T02:40:33;11.30;99.90
19888;DHT22;10106;51.332;12.336;2023-04-24T02:42:58;11.30;99.90
19888;DHT22;10106;51.332;12.336;2023-04-24T02:45:24;11.20;99.90
19888;DHT22;10106;51.332;12.336;2023-04-24T02:47:49;11.20;99.90
19888;DHT22;10106;51.332;12.336;2023-04-24T02:50:15;11.10;99.90
19888;DHT22;10106;51.332;12.336;2023-04-24T02:52:40;11.10;99.90
19888;DHT22;10106;51.332;12.336;2023-04-24T02:55:06;11.10;99.90
19888;DHT22;10106;51.332;12.336;2023-04-24T02:57:33;11.10;99.90
19888;DHT22;10106;51.332;12.336;2023-04-24T02:59:59;11.00;99.90
19888;DHT22;10106;51.332;12.336;2023-04-24T03:02:24;11.00;99.90
19888;DHT22;10106;51.332;12.336;2023-04-24T03:04:50;11.00;99.90
19888;DHT22;10106;51.332;12.336;2023-04-24T03:07:15;11.00;99.90
19888;DHT22;10106;51.332;12.336;2023-04-24T03:09:41;10.90;99.90
19888;DHT22;10106;51.332;12.336;2023-04-24T03:12:07;10.90;99.90
19888;DHT22;10106;51.332;12.336;2023-04-24T03:14:32;10.90;99.90
19888;DHT22;10106;51.332;12.336;2023-04-24T03:16:58;10.90;99.90
19888;DHT22;10106;51.332;12.336;2023-04-24T03:19:23;10.90;99.90
19888;DHT22;10106;51.332;12.336;2023-04-24T03:21:49;10.80;99.90
19888;DHT22;10106;51.332;12.336;2023-04-24T03:24:15;10.80;99.90
19888;DHT22;10106;51.332;12.336;2023-04-24T03:26:40;10.70;99.90
19888;DHT22;10106;51.332;12.336;2023-04-24T03:29:06;10.70;99.90
19888;DHT22;10106;51.332;12.336;2023-04-24T03:31:31;10.70;99.90
19888;DHT22;10106;51.332;12.336;2023-04-24T03:33:57;10.70;99.90
19888;DHT22;10106;51.332;12.336;2023-04-24T03:36:22;10.70;99.90
19888;DHT22;10106;51.332;12.336;2023-04-24T03:38:48;10.70;99.90
19888;DHT22;10106;51.332;12.336;2023-04-24T03:41:13;10.70;99.90
19888;DHT22;10106;51.332;12.336;2023-04-24T03:43:39;10.70;99.90
19888;DHT22;10106;51.332;12.336;2023-04-24T03:46:04;10.70;99.90
19888;DHT22;10106;51.332;12.336;2023-04-24T03:48:30;10.70;99.90
19888;DHT22;10106;51.332;12.336;2023-04-24T03:50:56;10.70;99.90
19888;DHT22;10106;51.332;12.336;2023-04-24T03:53:21;10.80;99.90
19888;DHT22;10106;51.332;12.336;2023-04-24T03:55:47;10.80;99.90
19888;DHT22;10106;51.332;12.336;2023-04-24T03:58:12;10.80;99.90
19888;DHT22;10106;51.332;12.336;2023-04-24T04:00:41;10.80;99.90
19888;DHT22;10106;51.332;12.336;2023-04-24T04:03:07;10.80;99.90
19888;DHT22;10106;51.332;12.336;2023-04-24T04:05:32;10.80;99.90
19888;DHT22;10106;51.332;12.336;2023-04-24T04:07:58;10.80;99.90
19888;DHT22;10106;51.332;12.336;2023-04-24T04:10:23;10.80;99.90
19888;DHT22;10106;51.332;12.336;2023-04-24T04:12:49;10.80;99.90
19888;DHT22;10106;51.332;12.336;2023-04-24T04:15:14;10.80;99.90
19888;DHT22;10106;51.332;12.336;2023-04-24T04:17:40;10.80;99.90
19888;DHT22;10106;51.332;12.336;2023-04-24T04:20:06;10.80;99.90
19888;DHT22;10106;51.332;12.336;2023-04-24T04:22:35;10.90;99.90
19888;DHT22;10106;51.332;12.336;2023-04-24T04:25:01;10.90;99.90
19888;DHT22;10106;51.332;12.336;2023-04-24T04:27:26;11.00;99.90
19888;DHT22;10106;51.332;12.336;2023-04-24T04:29:53;11.10;99.90
19888;DHT22;10106;51.332;12.336;2023-04-24T04:32:19;11.10;99.90
19888;DHT22;10106;51.332;12.336;2023-04-24T04:34:44;11.20;99.90
19888;DHT22;10106;51.332;12.336;2023-04-24T04:37:10;11.30;99.90
19888;DHT22;10106;51.332;12.336;2023-04-24T04:39:37;11.30;99.90
19888;DHT22;10106;51.332;12.336;2023-04-24T04:42:03;11.40;99.90
19888;DHT22;10106;51.332;12.336;2023-04-24T04:44:29;11.50;99.90
19888;DHT22;10106;51.332;12.336;2023-04-24T04:46:56;11.50;99.90
19888;DHT22;10106;51.332;12.336;2023-04-24T04:49:22;11.60;99.90
19888;DHT22;10106;51.332;12.336;2023-04-24T04:51:49;11.70;99.90
19888;DHT22;10106;51.332;12.336;2023-04-24T04:54:16;11.70;99.90
19888;DHT22;10106;51.332;12.336;2023-04-24T04:56:41;11.80;99.90
19888;DHT22;10106;51.332;12.336;2023-04-24T04:59:07;11.90;99.90
19888;DHT22;10106;51.332;12.336;2023-04-24T05:06:43;12.20;99.90
19888;DHT22;10106;51.332;12.336;2023-04-24T05:09:09;12.30;99.90
19888;DHT22;10106;51.332;12.336;2023-04-24T05:11:35;12.30;99.90
19888;DHT22;10106;51.332;12.336;2023-04-24T05:14:00;12.40;99.90
19888;DHT22;10106;51.332;12.336;2023-04-24T05:16:26;12.60;99.90
19888;DHT22;10106;51.332;12.336;2023-04-24T05:18:52;12.80;99.90
19888;DHT22;10106;51.332;12.336;2023-04-24T05:21:17;13.00;99.90
19888;DHT22;10106;51.332;12.336;2023-04-24T05:23:43;13.80;99.90
19888;DHT22;10106;51.332;12.336;2023-04-24T05:26:08;14.00;99.90
19888;DHT22;10106;51.332;12.336;2023-04-24T05:28:34;14.00;99.90
19888;DHT22;10106;51.332;12.336;2023-04-24T05:31:02;14.00;99.90
19888;DHT22;10106;51.332;12.336;2023-04-24T05:33:27;14.00;99.90
19888;DHT22;10106;51.332;12.336;2023-04-24T05:35:53;13.80;99.90
19888;DHT22;10106;51.332;12.336;2023-04-24T05:38:18;13.90;99.90
19888;DHT22;10106;51.332;12.336;2023-04-24T05:40:45;13.90;99.90
19888;DHT22;10106;51.332;12.336;2023-04-24T05:43:11;14.00;99.90
19888;DHT22;10106;51.332;12.336;2023-04-24T05:45:37;14.10;99.90
19888;DHT22;10106;51.332;12.336;2023-04-24T05:48:03;14.30;99.90
19888;DHT22;10106;51.332;12.336;2023-04-24T05:50:29;14.40;99.90
19888;DHT22;10106;51.332;12.336;2023-04-24T05:52:54;14.80;99.90
19888;DHT22;10106;51.332;12.336;2023-04-24T05:55:20;15.00;99.90
19888;DHT22;10106;51.332;12.336;2023-04-24T05:57:45;15.00;99.90
19888;DHT22;10106;51.332;12.336;2023-04-24T06:00:11;15.40;99.90
19888;DHT22;10106;51.332;12.336;2023-04-24T06:02:40;15.70;99.90
19888;DHT22;10106;51.332;12.336;2023-04-24T06:05:05;16.20;99.90
19888;DHT22;10106;51.332;12.336;2023-04-24T06:07:32;16.50;99.90
19888;DHT22;10106;51.332;12.336;2023-04-24T06:09:57;16.50;99.90
19888;DHT22;10106;51.332;12.336;2023-04-24T06:12:23;16.60;99.90
19888;DHT22;10106;51.332;12.336;2023-04-24T06:14:49;16.90;99.90
19888;DHT22;10106;51.332;12.336;2023-04-24T06:17:15;17.00;99.90
19888;DHT22;10106;51.332;12.336;2023-04-24T06:19:41;16.80;99.90
19888;DHT22;10106;51.332;12.336;2023-04-24T06:22:07;16.50;99.90
19888;DHT22;10106;51.332;12.336;2023-04-24T06:24:34;16.00;99.90
19888;DHT22;10106;51.332;12.336;2023-04-24T06:27:00;15.50;99.90
19888;DHT22;10106;51.332;12.336;2023-04-24T06:29:27;15.10;99.90
19888;DHT22;10106;51.332;12.336;2023-04-24T06:31:53;14.80;99.90
19888;DHT22;10106;51.332;12.336;2023-04-24T06:34:18;14.60;99.90
19888;DHT22;10106;51.332;12.336;2023-04-24T06:36:44;14.50;99.90
19888;DHT22;10106;51.332;12.336;2023-04-24T06:39:10;14.30;99.90
19888;DHT22;10106;51.332;12.336;2023-04-24T06:41:44;14.10;99.90
19888;DHT22;10106;51.332;12.336;2023-04-24T06:44:09;13.80;99.90
19888;DHT22;10106;51.332;12.336;2023-04-24T06:46:35;13.70;99.90
19888;DHT22;10106;51.332;12.336;2023-04-24T06:49:01;13.60;99.90
19888;DHT22;10106;51.332;12.336;2023-04-24T06:51:27;13.50;99.90
19888;DHT22;10106;51.332;12.336;2023-04-24T06:53:53;13.60;99.90
19888;DHT22;10106;51.332;12.336;2023-04-24T06:56:20;13.60;99.90
19888;DHT22;10106;51.332;12.336;2023-04-24T06:58:46;13.80;99.90
19888;DHT22;10106;51.332;12.336;2023-04-24T07:01:12;14.00;99.90
19888;DHT22;10106;51.332;12.336;2023-04-24T07:03:37;14.10;99.90
19888;DHT22;10106;51.332;12.336;2023-04-24T07:06:04;14.10;99.90
19888;DHT22;10106;51.332;12.336;2023-04-24T07:08:30;14.10;99.90
19888;DHT22;10106;51.332;12.336;2023-04-24T07:10:56;14.00;99.90
19888;DHT22;10106;51.332;12.336;2023-04-24T07:13:23;13.90;99.90
19888;DHT22;10106;51.332;12.336;2023-04-24T07:15:49;13.90;99.90
19888;DHT22;10106;51.332;12.336;2023-04-24T07:18:16;13.90;99.90
19888;DHT22;10106;51.332;12.336;2023-04-24T07:20:42;14.00;99.90
19888;DHT22;10106;51.332;12.336;2023-04-24T07:23:08;14.10;99.90
19888;DHT22;10106;51.332;12.336;2023-04-24T07:25:33;14.30;99.90
19888;DHT22;10106;51.332;12.336;2023-04-24T07:27:59;14.80;99.90
19888;DHT22;10106;51.332;12.336;2023-04-24T07:30:25;15.60;99.90
19888;DHT22;10106;51.332;12.336;2023-04-24T07:32:51;16.30;99.90
19888;DHT22;10106;51.332;12.336;2023-04-24T07:35:17;16.90;99.90
19888;DHT22;10106;51.332;12.336;2023-04-24T07:37:42;17.00;99.90
19888;DHT22;10106;51.332;12.336;2023-04-24T07:40:12;17.40;99.90
19888;DHT22;10106;51.332;12.336;2023-04-24T07:42:38;17.20;99.90
19888;DHT22;10106;51.332;12.336;2023-04-24T07:45:04;16.80;99.90
19888;DHT22;10106;51.332;12.336;2023-04-24T07:47:31;16.60;99.90
19888;DHT22;10106;51.332;12.336;2023-04-24T07:49:57;16.60;99.90
19888;DHT22;10106;51.332;12.336;2023-04-24T07:52:23;17.00;99.90
19888;DHT22;10106;51.332;12.336;2023-04-24T07:54:49;17.50;99.90
19888;DHT22;10106;51.332;12.336;2023-04-24T07:57:15;18.40;99.90
19888;DHT22;10106;51.332;12.336;2023-04-24T07:59:41;20.00;99.90
19888;DHT22;10106;51.332;12.336;2023-04-24T08:02:07;21.50;99.90
19888;DHT22;10106;51.332;12.336;2023-04-24T08:04:33;22.60;99.90
19888;DHT22;10106;51.332;12.336;2023-04-24T08:06:59;23.10;98.50
19888;DHT22;10106;51.332;12.336;2023-04-24T08:09:24;23.30;97.00
19888;DHT22;10106;51.332;12.336;2023-04-24T08:11:50;23.50;95.50
19888;DHT22;10106;51.332;12.336;2023-04-24T08:14:16;23.60;93.70
19888;DHT22;10106;51.332;12.336;2023-04-24T08:16:41;24.10;92.20
19888;DHT22;10106;51.332;12.336;2023-04-24T08:19:07;23.60;91.10
19888;DHT22;10106;51.332;12.336;2023-04-24T08:21:36;23.30;90.70
19888;DHT22;10106;51.332;12.336;2023-04-24T08:24:02;23.00;91.30
19888;DHT22;10106;51.332;12.336;2023-04-24T08:26:30;22.90;91.40
19888;DHT22;10106;51.332;12.336;2023-04-24T08:28:57;22.10;91.30
19888;DHT22;10106;51.332;12.336;2023-04-24T08:31:25;21.00;91.90
19888;DHT22;10106;51.332;12.336;2023-04-24T08:33:52;20.60;92.70
19888;DHT22;10106;51.332;12.336;2023-04-24T08:36:17;20.30;93.60
19888;DHT22;10106;51.332;12.336;2023-04-24T08:38:43;19.70;94.40
19888;DHT22;10106;51.332;12.336;2023-04-24T08:41:09;19.00;95.30
19888;DHT22;10106;51.332;12.336;2023-04-24T08:43:35;18.20;96.60
19888;DHT22;10106;51.332;12.336;2023-04-24T08:46:04;17.60;98.00
19888;DHT22;10106;51.332;12.336;2023-04-24T08:48:30;17.20;98.80
19888;DHT22;10106;51.332;12.336;2023-04-24T08:50:59;17.20;99.70
19888;DHT22;10106;51.332;12.336;2023-04-24T08:53:27;19.20;98.10
19888;DHT22;10106;51.332;12.336;2023-04-24T08:55:54;21.00;94.10
19888;DHT22;10106;51.332;12.336;2023-04-24T08:58:20;21.20;92.90
19888;DHT22;10106;51.332;12.336;2023-04-24T09:00:46;20.40;93.30
19888;DHT22;10106;51.332;12.336;2023-04-24T09:03:13;19.90;94.00
19888;DHT22;10106;51.332;12.336;2023-04-24T09:05:40;19.90;94.30
19888;DHT22;10106;51.332;12.336;2023-04-24T09:08:10;19.80;94.80
19888;DHT22;10106;51.332;12.336;2023-04-24T09:10:38;19.50;94.50
19888;DHT22;10106;51.332;12.336;2023-04-24T09:13:04;19.00;95.20
19888;DHT22;10106;51.332;12.336;2023-04-24T09:15:30;18.50;96.20
19888;DHT22;10106;51.332;12.336;2023-04-24T09:17:58;17.90;97.70
19888;DHT22;10106;51.332;12.336;2023-04-24T09:20:24;17.60;98.90
19888;DHT22;10106;51.332;12.336;2023-04-24T09:22:53;17.10;99.90
19888;DHT22;10106;51.332;12.336;2023-04-24T09:25:18;16.70;99.90
19888;DHT22;10106;51.332;12.336;2023-04-24T09:27:44;16.40;99.90
19888;DHT22;10106;51.332;12.336;2023-04-24T09:30:11;16.10;99.90
19888;DHT22;10106;51.332;12.336;2023-04-24T09:32:37;15.80;99.90
19888;DHT22;10106;51.332;12.336;2023-04-24T09:35:11;15.70;99.90
19888;DHT22;10106;51.332;12.336;2023-04-24T09:37:47;15.60;99.90
19888;DHT22;10106;51.332;12.336;2023-04-24T09:40:19;15.40;99.90
19888;DHT22;10106;51.332;12.336;2023-04-24T09:42:55;15.40;99.90
19888;DHT22;10106;51.332;12.336;2023-04-24T09:45:37;15.40;99.90
19888;DHT22;10106;51.332;12.336;2023-04-24T09:48:03;15.50;99.90
19888;DHT22;10106;51.332;12.336;2023-04-24T09:50:31;15.40;99.90
19888;DHT22;10106;51.332;12.336;2023-04-24T09:53:04;15.60;99.90
19888;DHT22;10106;51.332;12.336;2023-04-24T09:55:30;16.30;99.90
19888;DHT22;10106;51.332;12.336;2023-04-24T09:58:00;17.90;99.90
19888;DHT22;10106;51.332;12.336;2023-04-24T10:00:27;18.30;98.20
19888;DHT22;10106;51.332;12.336;2023-04-24T10:02:56;18.30;97.60
19888;DHT22;10106;51.332;12.336;2023-04-24T10:05:42;18.60;97.40
19888;DHT22;10106;51.332;12.336;2023-04-24T10:08:14;19.20;95.80
19888;DHT22;10106;51.332;12.336;2023-04-24T10:10:42;18.60;95.50
19888;DHT22;10106;51.332;12.336;2023-04-24T10:13:10;18.40;96.00
19888;DHT22;10106;51.332;12.336;2023-04-24T10:15:39;18.60;95.60
19888;DHT22;10106;51.332;12.336;2023-04-24T10:18:06;18.60;94.50
19888;DHT22;10106;51.332;12.336;2023-04-24T10:20:32;18.50;93.60
19888;DHT22;10106;51.332;12.336;2023-04-24T10:22:59;18.50;93.20
19888;DHT22;10106;51.332;12.336;2023-04-24T10:25:28;18.30;92.50
19888;DHT22;10106;51.332;12.336;2023-04-24T10:27:58;18.30;92.00
19888;DHT22;10106;51.332;12.336;2023-04-24T10:30:26;18.20;92.00
19888;DHT22;10106;51.332;12.336;2023-04-24T10:32:52;18.70;91.80
19888;DHT22;10106;51.332;12.336;2023-04-24T10:35:19;19.00;90.90
19888;DHT22;10106;51.332;12.336;2023-04-24T10:37:56;19.10;90.70
19888;DHT22;10106;51.332;12.336;2023-04-24T10:40:30;18.90;90.70
19888;DHT22;10106;51.332;12.336;2023-04-24T10:42:56;19.10;90.50
19888;DHT22;10106;51.332;12.336;2023-04-24T10:45:23;18.90;89.90
19888;DHT22;10106;51.332;12.336;2023-04-24T10:48:03;19.20;89.00
19888;DHT22;10106;51.332;12.336;2023-04-24T10:50:41;19.40;86.40
19888;DHT22;10106;51.332;12.336;2023-04-24T10:53:12;19.40;86.00
19888;DHT22;10106;51.332;12.336;2023-04-24T10:56:05;19.60;84.60
19888;DHT22;10106;51.332;12.336;2023-04-24T11:01:03;19.90;83.40
19888;DHT22;10106;51.332;12.336;2023-04-24T11:03:32;19.80;81.70
19888;DHT22;10106;51.332;12.336;2023-04-24T11:11:04;18.70;81.50
19888;DHT22;10106;51.332;12.336;2023-04-24T11:16:25;19.60;81.00
19888;DHT22;10106;51.332;12.336;2023-04-24T11:19:05;19.50;78.50
19888;DHT22;10106;51.332;12.336;2023-04-24T11:21:55;19.20;77.50
19888;DHT22;10106;51.332;12.336;2023-04-24T11:24:48;19.10;76.90
19888;DHT22;10106;51.332;12.336;2023-04-24T11:27:21;19.20;75.30
19888;DHT22;10106;51.332;12.336;2023-04-24T11:32:29;19.50;73.00
19888;DHT22;10106;51.332;12.336;2023-04-24T11:34:58;19.20;73.40
19888;DHT22;10106;51.332;12.336;2023-04-24T11:37:29;19.60;72.10
19888;DHT22;10106;51.332;12.336;2023-04-24T11:39:57;19.30;71.00
19888;DHT22;10106;51.332;12.336;2023-04-24T11:42:23;19.10;70.10
19888;DHT22;10106;51.332;12.336;2023-04-24T11:44:52;18.90;70.90
19888;DHT22;10106;51.332;12.336;2023-04-24T11:47:18;18.80;71.90
19888;DHT22;10106;51.332;12.336;2023-04-24T11:49:44;18.60;71.50
19888;DHT22;10106;51.332;12.336;2023-04-24T11:52:10;18.10;71.00
19888;DHT22;10106;51.332;12.336;2023-04-24T11:54:36;18.10;71.80
19888;DHT22;10106;51.332;12.336;2023-04-24T11:57:05;18.50;71.70
19888;DHT22;10106;51.332;12.336;2023-04-24T11:59:36;18.80;69.80
19888;DHT22;10106;51.332;12.336;2023-04-24T12:02:02;18.80;67.70
19888;DHT22;10106;51.332;12.336;2023-04-24T12:04:40;19.00;68.10
19888;DHT22;10106;51.332;12.336;2023-04-24T12:07:06;19.40;67.90
19888;DHT22;10106;51.332;12.336;2023-04-24T12:09:44;19.60;67.30
19888;DHT22;10106;51.332;12.336;2023-04-24T12:12:11;19.60;66.00
19888;DHT22;10106;51.332;12.336;2023-04-24T12:14:44;19.30;67.60
19888;DHT22;10106;51.332;12.336;2023-04-24T12:17:10;19.20;69.60
19888;DHT22;10106;51.332;12.336;2023-04-24T12:19:35;19.30;70.10
19888;DHT22;10106;51.332;12.336;2023-04-24T12:22:03;19.40;69.00
19888;DHT22;10106;51.332;12.336;2023-04-24T12:24:29;19.30;69.50
19888;DHT22;10106;51.332;12.336;2023-04-24T12:26:56;19.00;68.90
19888;DHT22;10106;51.332;12.336;2023-04-24T12:29:22;18.80;68.40
19888;DHT22;10106;51.332;12.336;2023-04-24T12:31:48;18.40;67.80
19888;DHT22;10106;51.332;12.336;2023-04-24T12:34:17;18.00;68.60
19888;DHT22;10106;51.332;12.336;2023-04-24T12:36:43;17.80;68.50
19888;DHT22;10106;51.332;12.336;2023-04-24T12:39:15;17.70;68.60
19888;DHT22;10106;51.332;12.336;2023-04-24T12:41:50;17.90;69.20
19888;DHT22;10106;51.332;12.336;2023-04-24T12:44:19;18.00;69.80
19888;DHT22;10106;51.332;12.336;2023-04-24T12:46:45;18.20;69.40
19888;DHT22;10106;51.332;12.336;2023-04-24T12:49:10;18.30;69.00
19888;DHT22;10106;51.332;12.336;2023-04-24T12:51:36;18.20;68.70
19888;DHT22;10106;51.332;12.336;2023-04-24T12:54:02;18.20;68.80
19888;DHT22;10106;51.332;12.336;2023-04-24T12:56:27;18.10;68.90
19888;DHT22;10106;51.332;12.336;2023-04-24T12:58:53;18.10;69.10
19888;DHT22;10106;51.332;12.336;2023-04-24T13:01:19;18.40;68.80
19888;DHT22;10106;51.332;12.336;2023-04-24T13:03:44;18.30;68.90
19888;DHT22;10106;51.332;12.336;2023-04-24T13:06:10;18.30;66.30
19888;DHT22;10106;51.332;12.336;2023-04-24T13:08:36;18.20;65.50
19888;DHT22;10106;51.332;12.336;2023-04-24T13:11:01;18.40;66.10
19888;DHT22;10106;51.332;12.336;2023-04-24T13:13:27;18.60;66.20
19888;DHT22;10106;51.332;12.336;2023-04-24T13:15:53;18.80;65.20
19888;DHT22;10106;51.332;12.336;2023-04-24T13:18:18;18.90;63.80
19888;DHT22;10106;51.332;12.336;2023-04-24T13:20:44;19.10;63.20
19888;DHT22;10106;51.332;12.336;2023-04-24T13:23:11;19.10;62.90
19888;DHT22;10106;51.332;12.336;2023-04-24T13:25:37;19.20;63.50
19888;DHT22;10106;51.332;12.336;2023-04-24T13:28:04;19.30;62.90
19888;DHT22;10106;51.332;12.336;2023-04-24T13:30:30;19.50;64.00
19888;DHT22;10106;51.332;12.336;2023-04-24T13:32:56;19.70;63.40
19888;DHT22;10106;51.332;12.336;2023-04-24T13:35:22;19.80;63.00
19888;DHT22;10106;51.332;12.336;2023-04-24T13:37:48;19.60;63.00
19888;DHT22;10106;51.332;12.336;2023-04-24T13:40:13;19.50;62.70
19888;DHT22;10106;51.332;12.336;2023-04-24T13:42:40;19.30;62.30
19888;DHT22;10106;51.332;12.336;2023-04-24T13:45:06;19.10;62.50
19888;DHT22;10106;51.332;12.336;2023-04-24T13:47:31;18.90;63.20
19888;DHT22;10106;51.332;12.336;2023-04-24T13:49:57;18.50;64.40
19888;DHT22;10106;51.332;12.336;2023-04-24T13:52:23;18.20;65.10
19888;DHT22;10106;51.332;12.336;2023-04-24T13:54:48;18.00;65.70
19888;DHT22;10106;51.332;12.336;2023-04-24T13:57:14;17.70;66.40
19888;DHT22;10106;51.332;12.336;2023-04-24T13:59:41;17.40;67.40
19888;DHT22;10106;51.332;12.336;2023-04-24T14:02:06;17.10;68.60
19888;DHT22;10106;51.332;12.336;2023-04-24T14:04:32;17.20;70.00
19888;DHT22;10106;51.332;12.336;2023-04-24T14:06:57;17.30;70.90
19888;DHT22;10106;51.332;12.336;2023-04-24T14:09:23;17.50;68.50
19888;DHT22;10106;51.332;12.336;2023-04-24T14:11:49;17.80;66.30
19888;DHT22;10106;51.332;12.336;2023-04-24T14:14:14;17.90;66.00
19888;DHT22;10106;51.332;12.336;2023-04-24T14:16:40;17.90;66.70
19888;DHT22;10106;51.332;12.336;2023-04-24T14:19:06;18.00;67.50
19888;DHT22;10106;51.332;12.336;2023-04-24T14:21:32;18.00;67.80
19888;DHT22;10106;51.332;12.336;2023-04-24T14:23:58;18.00;68.50
19888;DHT22;10106;51.332;12.336;2023-04-24T14:26:24;17.90;68.60
19888;DHT22;10106;51.332;12.336;2023-04-24T14:28:50;17.80;69.40
19888;DHT22;10106;51.332;12.336;2023-04-24T14:31:18;17.80;70.00
19888;DHT22;10106;51.332;12.336;2023-04-24T14:33:43;17.80;70.90
19888;DHT22;10106;51.332;12.336;2023-04-24T14:36:09;17.70;70.70
19888;DHT22;10106;51.332;12.336;2023-04-24T14:38:35;17.60;69.90
19888;DHT22;10106;51.332;12.336;2023-04-24T14:41:01;17.40;70.40
19888;DHT22;10106;51.332;12.336;2023-04-24T14:43:35;17.40;70.90
19888;DHT22;10106;51.332;12.336;2023-04-24T14:46:01;17.40;72.10
19888;DHT22;10106;51.332;12.336;2023-04-24T14:48:29;17.20;73.40
19888;DHT22;10106;51.332;12.336;2023-04-24T14:50:55;16.90;74.30
19888;DHT22;10106;51.332;12.336;2023-04-24T15:00:39;16.10;94.60
19888;DHT22;10106;51.332;12.336;2023-04-24T15:03:05;15.80;96.20
19888;DHT22;10106;51.332;12.336;2023-04-24T15:05:31;15.60;96.20
19888;DHT22;10106;51.332;12.336;2023-04-24T15:07:56;15.40;96.30
19888;DHT22;10106;51.332;12.336;2023-04-24T15:10:22;15.30;98.00
19888;DHT22;10106;51.332;12.336;2023-04-24T15:12:49;15.60;99.00
19888;DHT22;10106;51.332;12.336;2023-04-24T15:15:15;15.70;99.90
19888;DHT22;10106;51.332;12.336;2023-04-24T15:17:40;15.80;96.70
19888;DHT22;10106;51.332;12.336;2023-04-24T15:20:07;15.50;96.90
19888;DHT22;10106;51.332;12.336;2023-04-24T15:22:34;15.20;96.80
19888;DHT22;10106;51.332;12.336;2023-04-24T15:24:59;15.10;98.00
19888;DHT22;10106;51.332;12.336;2023-04-24T15:27:26;15.00;98.60
19888;DHT22;10106;51.332;12.336;2023-04-24T15:29:53;14.90;99.90
19888;DHT22;10106;51.332;12.336;2023-04-24T15:34:45;14.90;99.90
19888;DHT22;10106;51.332;12.336;2023-04-24T16:13:44;14.30;99.90
19888;DHT22;10106;51.332;12.336;2023-04-24T16:16:10;14.10;90.60
19888;DHT22;10106;51.332;12.336;2023-04-24T16:18:35;13.90;91.20